sensor_id;sensor_type;location;lat;lon;timestamp;temperature;humidity
5130;DHT22;2583;50.946;6.954;2023-03-01T00:01:15;2.50;1.00
5130;DHT22;2583;50.946;6.954;2023-03-01T00:03:42;2.50;1.00
5130;DHT22;2583;50.946;6.954;2023-03-01T00:06:09;2.40;1.00
5130;DHT22;2583;50.946;6.954;2023-03-01T00:08:37;2.40;1.00
5130;DHT22;2583;50.946;6.954;2023-03-01T00:11:19;2.40;1.00
5130;DHT22;2583;50.946;6.954;2023-03-01T00:13:48;2.40;1.00
5130;DHT22;2583;50.946;6.954;2023-03-01T00:16:18;2.40;1.00
5130;DHT22;2583;50.946;6.954;2023-03-01T00:18:45;2.40;1.00
5130;DHT22;2583;50.946;6.954;2023-03-01T00:21:12;2.30;1.00
5130;DHT22;2583;50.946;6.954;2023-03-01T00:23:40;2.30;1.00
5130;DHT22;2583;50.946;6.954;2023-03-01T00:26:10;2.30;1.00
5130;DHT22;2583;50.946;6.954;2023-03-01T00:28:37;2.30;1.00
5130;DHT22;2583;50.946;6.954;2023-03-01T00:31:09;2.20;1.00
5130;DHT22;2583;50.946;6.954;2023-03-01T00:33:36;2.20;1.00
5130;DHT22;2583;50.946;6.954;2023-03-01T00:36:05;2.20;1.00
5130;DHT22;2583;50.946;6.954;2023-03-01T00:38:37;2.20;1.00
5130;DHT22;2583;50.946;6.954;2023-03-01T00:41:06;2.10;1.00
5130;DHT22;2583;50.946;6.954;2023-03-01T00:43:33;2.10;1.00
5130;DHT22;2583;50.946;6.954;2023-03-01T00:46:07;2.10;1.00
5130;DHT22;2583;50.946;6.954;2023-03-01T00:48:35;2.10;1.00
5130;DHT22;2583;50.946;6.954;2023-03-01T00:53:32;2.00;1.00
5130;DHT22;2583;50.946;6.954;2023-03-01T00:55:59;2.00;1.00
5130;DHT22;2583;50.946;6.954;2023-03-01T00:58:26;2.00;1.00
5130;DHT22;2583;50.946;6.954;2023-03-01T01:00:53;2.00;1.00
5130;DHT22;2583;50.946;6.954;2023-03-01T01:03:20;2.00;1.00
5130;DHT22;2583;50.946;6.954;2023-03-01T01:05:47;1.90;1.00
5130;DHT22;2583;50.946;6.954;2023-03-01T01:08:14;1.90;1.00
5130;DHT22;2583;50.946;6.954;2023-03-01T01:10:43;1.90;1.00
5130;DHT22;2583;50.946;6.954;2023-03-01T01:13:10;1.90;1.00
5130;DHT22;2583;50.946;6.954;2023-03-01T01:15:37;1.90;1.00
5130;DHT22;2583;50.946;6.954;2023-03-01T01:18:04;1.90;1.00
5130;DHT22;2583;50.946;6.954;2023-03-01T01:20:31;1.90;1.00
5130;DHT22;2583;50.946;6.954;2023-03-01T01:22:57;1.90;1.00
5130;DHT22;2583;50.946;6.954;2023-03-01T01:25:24;1.90;1.00
5130;DHT22;2583;50.946;6.954;2023-03-01T01:27:51;1.90;1.00
5130;DHT22;2583;50.946;6.954;2023-03-01T01:30:18;1.90;1.00
5130;DHT22;2583;50.946;6.954;2023-03-01T01:32:45;1.90;1.00
5130;DHT22;2583;50.946;6.954;2023-03-01T01:35:11;1.90;1.00
5130;DHT22;2583;50.946;6.954;2023-03-01T01:37:38;1.90;1.00
5130;DHT22;2583;50.946;6.954;2023-03-01T01:40:05;1.90;1.00
5130;DHT22;2583;50.946;6.954;2023-03-01T01:42:32;1.90;1.00
5130;DHT22;2583;50.946;6.954;2023-03-01T01:48:00;1.80;1.00
5130;DHT22;2583;50.946;6.954;2023-03-01T01:50:29;1.80;1.00
5130;DHT22;2583;50.946;6.954;2023-03-01T01:53:09;1.80;1.00
5130;DHT22;2583;50.946;6.954;2023-03-01T01:55:41;1.80;1.00
5130;DHT22;2583;50.946;6.954;2023-03-01T01:58:10;1.80;1.00
5130;DHT22;2583;50.946;6.954;2023-03-01T02:00:38;1.70;1.00
5130;DHT22;2583;50.946;6.954;2023-03-01T02:03:12;1.70;1.00
5130;DHT22;2583;50.946;6.954;2023-03-01T02:08:23;1.70;1.00
5130;DHT22;2583;50.946;6.954;2023-03-01T02:10:52;1.70;1.00
5130;DHT22;2583;50.946;6.954;2023-03-01T02:13:19;1.70;1.00
5130;DHT22;2583;50.946;6.954;2023-03-01T02:15:46;1.70;1.00
5130;DHT22;2583;50.946;6.954;2023-03-01T02:18:16;1.70;1.00
5130;DHT22;2583;50.946;6.954;2023-03-01T02:21:00;1.70;1.00
5130;DHT22;2583;50.946;6.954;2023-03-01T02:23:30;1.70;1.00
5130;DHT22;2583;50.946;6.954;2023-03-01T02:26:03;1.60;1.00
5130;DHT22;2583;50.946;6.954;2023-03-01T02:28:37;1.60;1.00
5130;DHT22;2583;50.946;6.954;2023-03-01T02:31:08;1.60;1.00
5130;DHT22;2583;50.946;6.954;2023-03-01T02:33:55;1.60;1.00
5130;DHT22;2583;50.946;6.954;2023-03-01T02:36:30;1.60;1.00
5130;DHT22;2583;50.946;6.954;2023-03-01T02:38:59;1.60;1.00
5130;DHT22;2583;50.946;6.954;2023-03-01T02:41:29;1.50;1.00
5130;DHT22;2583;50.946;6.954;2023-03-01T02:43:57;1.50;1.00
5130;DHT22;2583;50.946;6.954;2023-03-01T02:46:25;1.40;1.00
5130;DHT22;2583;50.946;6.954;2023-03-01T02:48:54;1.40;1.00
5130;DHT22;2583;50.946;6.954;2023-03-01T02:54:40;1.30;1.00
5130;DHT22;2583;50.946;6.954;2023-03-01T02:57:09;1.30;1.00
5130;DHT22;2583;50.946;6.954;2023-03-01T02:59:37;1.30;1.00
5130;DHT22;2583;50.946;6.954;2023-03-01T03:02:20;1.30;1.00
5130;DHT22;2583;50.946;6.954;2023-03-01T03:04:48;1.20;1.00
5130;DHT22;2583;50.946;6.954;2023-03-01T03:07:15;1.20;1.00
5130;DHT22;2583;50.946;6.954;2023-03-01T03:09:42;1.20;1.00
5130;DHT22;2583;50.946;6.954;2023-03-01T03:12:08;1.20;1.00
5130;DHT22;2583;50.946;6.954;2023-03-01T03:14:35;1.20;1.00
5130;DHT22;2583;50.946;6.954;2023-03-01T03:17:02;1.20;1.00
5130;DHT22;2583;50.946;6.954;2023-03-01T03:19:33;1.20;1.00
5130;DHT22;2583;50.946;6.954;2023-03-01T03:21:59;1.20;1.00
5130;DHT22;2583;50.946;6.954;2023-03-01T03:24:26;1.20;1.00
5130;DHT22;2583;50.946;6.954;2023-03-01T03:27:05;1.20;1.00
5130;DHT22;2583;50.946;6.954;2023-03-01T03:29:32;1.20;1.00
5130;DHT22;2583;50.946;6.954;2023-03-01T03:31:59;1.20;1.00
5130;DHT22;2583;50.946;6.954;2023-03-01T03:34:26;1.10;1.00
5130;DHT22;2583;50.946;6.954;2023-03-01T03:36:56;1.10;1.00
5130;DHT22;2583;50.946;6.954;2023-03-01T03:39:26;1.10;1.00
5130;DHT22;2583;50.946;6.954;2023-03-01T03:41:54;1.10;1.00
5130;DHT22;2583;50.946;6.954;2023-03-01T03:44:21;1.00;1.00
5130;DHT22;2583;50.946;6.954;2023-03-01T03:46:48;1.00;1.00
5130;DHT22;2583;50.946;6.954;2023-03-01T03:49:14;1.10;1.00
5130;DHT22;2583;50.946;6.954;2023-03-01T03:51:41;1.10;1.00
5130;DHT22;2583;50.946;6.954;2023-03-01T03:54:08;1.00;1.00
5130;DHT22;2583;50.946;6.954;2023-03-01T03:56:35;1.00;1.00
5130;DHT22;2583;50.946;6.954;2023-03-01T03:59:01;1.00;1.00
5130;DHT22;2583;50.946;6.954;2023-03-01T04:01:28;1.00;1.00
5130;DHT22;2583;50.946;6.954;2023-03-01T04:03:55;1.00;1.00
5130;DHT22;2583;50.946;6.954;2023-03-01T04:06:22;0.90;1.00
5130;DHT22;2583;50.946;6.954;2023-03-01T04:08:48;0.90;1.00
5130;DHT22;2583;50.946;6.954;2023-03-01T04:11:17;0.90;1.00
5130;DHT22;2583;50.946;6.954;2023-03-01T04:13:56;0.80;1.00
5130;DHT22;2583;50.946;6.954;2023-03-01T04:16:24;0.80;1.00
5130;DHT22;2583;50.946;6.954;2023-03-01T04:18:51;0.80;1.00
5130;DHT22;2583;50.946;6.954;2023-03-01T04:21:20;0.80;1.00
5130;DHT22;2583;50.946;6.954;2023-03-01T04:23:47;0.80;1.00
5130;DHT22;2583;50.946;6.954;2023-03-01T04:26:14;0.80;1.00
5130;DHT22;2583;50.946;6.954;2023-03-01T04:28:42;0.80;1.00
5130;DHT22;2583;50.946;6.954;2023-03-01T04:31:17;0.80;1.00
5130;DHT22;2583;50.946;6.954;2023-03-01T04:33:55;0.80;1.00
5130;DHT22;2583;50.946;6.954;2023-03-01T04:36:24;0.90;1.00
5130;DHT22;2583;50.946;6.954;2023-03-01T04:38:51;0.80;1.00
5130;DHT22;2583;50.946;6.954;2023-03-01T04:41:20;0.80;1.00
5130;DHT22;2583;50.946;6.954;2023-03-01T04:43:47;0.70;1.00
5130;DHT22;2583;50.946;6.954;2023-03-01T04:46:17;0.80;1.00
5130;DHT22;2583;50.946;6.954;2023-03-01T04:48:45;0.70;1.00
5130;DHT22;2583;50.946;6.954;2023-03-01T04:51:12;0.80;1.00
5130;DHT22;2583;50.946;6.954;2023-03-01T04:53:40;0.70;1.00
5130;DHT22;2583;50.946;6.954;2023-03-01T04:56:07;0.80;1.00
5130;DHT22;2583;50.946;6.954;2023-03-01T04:58:34;0.70;1.00
5130;DHT22;2583;50.946;6.954;2023-03-01T05:01:01;0.80;1.00
5130;DHT22;2583;50.946;6.954;2023-03-01T05:03:27;0.70;1.00
5130;DHT22;2583;50.946;6.954;2023-03-01T05:05:58;0.80;1.00
5130;DHT22;2583;50.946;6.954;2023-03-01T05:08:26;0.80;1.00
5130;DHT22;2583;50.946;6.954;2023-03-01T05:10:53;0.80;1.00
5130;DHT22;2583;50.946;6.954;2023-03-01T05:13:21;0.80;1.00
5130;DHT22;2583;50.946;6.954;2023-03-01T05:15:55;0.70;1.00
5130;DHT22;2583;50.946;6.954;2023-03-01T05:18:24;0.70;1.00
5130;DHT22;2583;50.946;6.954;2023-03-01T05:20:55;0.70;1.00
5130;DHT22;2583;50.946;6.954;2023-03-01T05:23:25;0.70;1.00
5130;DHT22;2583;50.946;6.954;2023-03-01T05:25:51;0.70;1.00
5130;DHT22;2583;50.946;6.954;2023-03-01T05:28:19;0.70;1.00
5130;DHT22;2583;50.946;6.954;2023-03-01T05:30:47;0.70;1.00
5130;DHT22;2583;50.946;6.954;2023-03-01T05:33:14;0.70;1.00
5130;DHT22;2583;50.946;6.954;2023-03-01T05:35:42;0.70;1.00
5130;DHT22;2583;50.946;6.954;2023-03-01T05:38:10;0.70;1.00
5130;DHT22;2583;50.946;6.954;2023-03-01T05:40:45;0.60;1.00
5130;DHT22;2583;50.946;6.954;2023-03-01T05:43:13;0.60;1.00
5130;DHT22;2583;50.946;6.954;2023-03-01T05:45:40;0.60;1.00
5130;DHT22;2583;50.946;6.954;2023-03-01T05:48:09;0.60;1.00
5130;DHT22;2583;50.946;6.954;2023-03-01T05:50:39;0.60;1.00
5130;DHT22;2583;50.946;6.954;2023-03-01T05:53:18;0.60;1.00
5130;DHT22;2583;50.946;6.954;2023-03-01T05:55:45;0.60;1.00
5130;DHT22;2583;50.946;6.954;2023-03-01T05:58:18;0.60;1.00
5130;DHT22;2583;50.946;6.954;2023-03-01T06:00:47;0.60;1.00
5130;DHT22;2583;50.946;6.954;2023-03-01T06:03:16;0.60;1.00
5130;DHT22;2583;50.946;6.954;2023-03-01T06:05:43;0.60;1.00
5130;DHT22;2583;50.946;6.954;2023-03-01T06:08:11;0.60;1.00
5130;DHT22;2583;50.946;6.954;2023-03-01T06:10:39;0.50;1.00
5130;DHT22;2583;50.946;6.954;2023-03-01T06:13:06;0.50;1.00
5130;DHT22;2583;50.946;6.954;2023-03-01T06:15:33;0.50;1.00
5130;DHT22;2583;50.946;6.954;2023-03-01T06:18:00;0.60;1.00
5130;DHT22;2583;50.946;6.954;2023-03-01T06:20:28;0.60;1.00
5130;DHT22;2583;50.946;6.954;2023-03-01T06:22:56;0.60;1.00
5130;DHT22;2583;50.946;6.954;2023-03-01T06:25:24;0.50;1.00
5130;DHT22;2583;50.946;6.954;2023-03-01T06:27:52;0.50;1.00
5130;DHT22;2583;50.946;6.954;2023-03-01T06:30:20;0.50;1.00
5130;DHT22;2583;50.946;6.954;2023-03-01T06:32:49;0.60;1.00
5130;DHT22;2583;50.946;6.954;2023-03-01T06:35:17;0.60;1.00
5130;DHT22;2583;50.946;6.954;2023-03-01T06:37:46;0.60;1.00
5130;DHT22;2583;50.946;6.954;2023-03-01T06:40:13;0.60;1.00
5130;DHT22;2583;50.946;6.954;2023-03-01T06:42:42;0.60;1.00
5130;DHT22;2583;50.946;6.954;2023-03-01T06:45:09;0.60;1.00
5130;DHT22;2583;50.946;6.954;2023-03-01T06:47:36;0.60;1.00
5130;DHT22;2583;50.946;6.954;2023-03-01T06:50:03;0.60;1.00
5130;DHT22;2583;50.946;6.954;2023-03-01T06:52:30;0.60;1.00
5130;DHT22;2583;50.946;6.954;2023-03-01T06:54:58;0.60;1.00
5130;DHT22;2583;50.946;6.954;2023-03-01T06:57:25;0.70;1.00
5130;DHT22;2583;50.946;6.954;2023-03-01T06:59:52;0.70;1.00
5130;DHT22;2583;50.946;6.954;2023-03-01T07:02:19;0.70;1.00
5130;DHT22;2583;50.946;6.954;2023-03-01T07:04:46;0.70;1.00
5130;DHT22;2583;50.946;6.954;2023-03-01T07:07:12;0.70;1.00
5130;DHT22;2583;50.946;6.954;2023-03-01T07:09:39;0.70;1.00
5130;DHT22;2583;50.946;6.954;2023-03-01T07:12:06;0.80;1.00
5130;DHT22;2583;50.946;6.954;2023-03-01T07:14:33;0.80;1.00
5130;DHT22;2583;50.946;6.954;2023-03-01T07:17:00;0.90;1.00
5130;DHT22;2583;50.946;6.954;2023-03-01T07:19:26;0.90;1.00
5130;DHT22;2583;50.946;6.954;2023-03-01T07:21:53;0.90;1.00
5130;DHT22;2583;50.946;6.954;2023-03-01T07:24:22;1.00;1.00
5130;DHT22;2583;50.946;6.954;2023-03-01T07:26:50;1.00;1.00
5130;DHT22;2583;50.946;6.954;2023-03-01T07:29:18;1.10;1.00
5130;DHT22;2583;50.946;6.954;2023-03-01T07:31:45;1.10;1.00
5130;DHT22;2583;50.946;6.954;2023-03-01T07:34:12;1.10;1.00
5130;DHT22;2583;50.946;6.954;2023-03-01T07:36:38;1.10;1.00
5130;DHT22;2583;50.946;6.954;2023-03-01T07:39:06;1.10;1.00
5130;DHT22;2583;50.946;6.954;2023-03-01T07:41:33;1.10;1.00
5130;DHT22;2583;50.946;6.954;2023-03-01T07:43:59;1.20;1.00
5130;DHT22;2583;50.946;6.954;2023-03-01T07:46:26;1.20;1.00
5130;DHT22;2583;50.946;6.954;2023-03-01T07:48:53;1.20;1.00
5130;DHT22;2583;50.946;6.954;2023-03-01T07:51:20;1.20;1.00
5130;DHT22;2583;50.946;6.954;2023-03-01T07:53:48;1.20;1.00
5130;DHT22;2583;50.946;6.954;2023-03-01T07:56:15;1.20;1.00
5130;DHT22;2583;50.946;6.954;2023-03-01T07:58:45;1.20;1.00
5130;DHT22;2583;50.946;6.954;2023-03-01T08:01:16;1.20;1.00
5130;DHT22;2583;50.946;6.954;2023-03-01T08:03:43;1.30;1.00
5130;DHT22;2583;50.946;6.954;2023-03-01T08:06:14;1.30;1.00
5130;DHT22;2583;50.946;6.954;2023-03-01T08:08:42;1.40;1.00
5130;DHT22;2583;50.946;6.954;2023-03-01T08:11:11;1.40;1.00
5130;DHT22;2583;50.946;6.954;2023-03-01T08:13:38;1.40;1.00
5130;DHT22;2583;50.946;6.954;2023-03-01T08:16:11;1.50;1.00
5130;DHT22;2583;50.946;6.954;2023-03-01T08:18:39;1.60;1.00
5130;DHT22;2583;50.946;6.954;2023-03-01T08:21:07;1.70;1.00
5130;DHT22;2583;50.946;6.954;2023-03-01T08:23:34;1.80;1.00
5130;DHT22;2583;50.946;6.954;2023-03-01T08:26:10;1.90;1.00
5130;DHT22;2583;50.946;6.954;2023-03-01T08:28:38;1.90;1.00
5130;DHT22;2583;50.946;6.954;2023-03-01T08:31:27;2.10;1.00
5130;DHT22;2583;50.946;6.954;2023-03-01T08:33:57;2.20;1.00
5130;DHT22;2583;50.946;6.954;2023-03-01T08:36:26;2.30;1.00
5130;DHT22;2583;50.946;6.954;2023-03-01T08:38:54;2.40;1.00
5130;DHT22;2583;50.946;6.954;2023-03-01T08:41:21;2.50;1.00
5130;DHT22;2583;50.946;6.954;2023-03-01T08:43:48;2.60;1.00
5130;DHT22;2583;50.946;6.954;2023-03-01T08:46:15;2.70;1.00
5130;DHT22;2583;50.946;6.954;2023-03-01T08:48:42;2.80;1.00
5130;DHT22;2583;50.946;6.954;2023-03-01T08:51:18;3.00;1.00
5130;DHT22;2583;50.946;6.954;2023-03-01T08:53:45;3.10;1.00
5130;DHT22;2583;50.946;6.954;2023-03-01T08:56:12;3.10;1.00
5130;DHT22;2583;50.946;6.954;2023-03-01T08:58:39;3.10;1.00
5130;DHT22;2583;50.946;6.954;2023-03-01T09:01:10;3.20;1.00
5130;DHT22;2583;50.946;6.954;2023-03-01T09:03:38;3.40;1.00
5130;DHT22;2583;50.946;6.954;2023-03-01T09:06:06;3.50;1.00
5130;DHT22;2583;50.946;6.954;2023-03-01T09:08:38;3.60;1.00
5130;DHT22;2583;50.946;6.954;2023-03-01T09:11:07;3.60;1.00
5130;DHT22;2583;50.946;6.954;2023-03-01T09:13:35;3.70;1.00
5130;DHT22;2583;50.946;6.954;2023-03-01T09:16:03;3.90;1.00
5130;DHT22;2583;50.946;6.954;2023-03-01T09:18:30;3.80;1.00
5130;DHT22;2583;50.946;6.954;2023-03-01T09:21:05;3.90;1.00
5130;DHT22;2583;50.946;6.954;2023-03-01T09:23:36;3.90;1.00
5130;DHT22;2583;50.946;6.954;2023-03-01T09:26:06;4.10;1.00
5130;DHT22;2583;50.946;6.954;2023-03-01T09:28:33;4.30;1.00
5130;DHT22;2583;50.946;6.954;2023-03-01T09:31:00;4.40;1.00
5130;DHT22;2583;50.946;6.954;2023-03-01T09:33:29;4.50;1.00
5130;DHT22;2583;50.946;6.954;2023-03-01T09:36:01;4.60;1.00
5130;DHT22;2583;50.946;6.954;2023-03-01T09:38:29;4.70;1.00
5130;DHT22;2583;50.946;6.954;2023-03-01T09:40:56;4.80;1.00
5130;DHT22;2583;50.946;6.954;2023-03-01T09:43:42;4.90;1.00
5130;DHT22;2583;50.946;6.954;2023-03-01T09:46:12;5.00;1.00
5130;DHT22;2583;50.946;6.954;2023-03-01T09:48:48;4.90;1.00
5130;DHT22;2583;50.946;6.954;2023-03-01T09:51:29;4.80;1.00
5130;DHT22;2583;50.946;6.954;2023-03-01T09:53:57;4.90;1.00
5130;DHT22;2583;50.946;6.954;2023-03-01T09:56:41;5.00;1.00
5130;DHT22;2583;50.946;6.954;2023-03-01T10:09:39;5.20;1.00
5130;DHT22;2583;50.946;6.954;2023-03-01T10:12:14;5.20;1.00
5130;DHT22;2583;50.946;6.954;2023-03-01T10:17:41;5.50;1.00
5130;DHT22;2583;50.946;6.954;2023-03-01T10:22:49;5.70;1.00
5130;DHT22;2583;50.946;6.954;2023-03-01T10:25:56;5.50;1.00
5130;DHT22;2583;50.946;6.954;2023-03-01T10:31:14;5.70;1.00
5130;DHT22;2583;50.946;6.954;2023-03-01T10:33:41;5.80;1.00
5130;DHT22;2583;50.946;6.954;2023-03-01T10:36:08;5.90;1.00
5130;DHT22;2583;50.946;6.954;2023-03-01T10:38:51;6.00;1.00
5130;DHT22;2583;50.946;6.954;2023-03-01T10:41:21;6.10;1.00
5130;DHT22;2583;50.946;6.954;2023-03-01T10:43:54;6.20;1.00
5130;DHT22;2583;50.946;6.954;2023-03-01T10:46:42;6.10;1.00
5130;DHT22;2583;50.946;6.954;2023-03-01T10:49:22;6.30;1.00
5130;DHT22;2583;50.946;6.954;2023-03-01T10:51:51;6.30;1.00
5130;DHT22;2583;50.946;6.954;2023-03-01T10:54:28;6.20;1.00
5130;DHT22;2583;50.946;6.954;2023-03-01T10:57:01;6.30;1.00
5130;DHT22;2583;50.946;6.954;2023-03-01T10:59:34;6.40;1.00
5130;DHT22;2583;50.946;6.954;2023-03-01T11:02:29;6.40;1.00
5130;DHT22;2583;50.946;6.954;2023-03-01T11:05:01;6.50;1.00
5130;DHT22;2583;50.946;6.954;2023-03-01T11:07:29;6.50;1.00
5130;DHT22;2583;50.946;6.954;2023-03-01T11:09:56;6.50;1.00
5130;DHT22;2583;50.946;6.954;2023-03-01T11:12:24;6.50;1.00
5130;DHT22;2583;50.946;6.954;2023-03-01T11:14:54;6.50;1.00
5130;DHT22;2583;50.946;6.954;2023-03-01T11:17:28;6.50;1.00
5130;DHT22;2583;50.946;6.954;2023-03-01T11:25:14;6.80;1.00
5130;DHT22;2583;50.946;6.954;2023-03-01T11:27:44;6.70;1.00
5130;DHT22;2583;50.946;6.954;2023-03-01T11:35:25;7.00;1.00
5130;DHT22;2583;50.946;6.954;2023-03-01T11:40:45;7.20;1.00
5130;DHT22;2583;50.946;6.954;2023-03-01T11:43:31;7.20;1.00
5130;DHT22;2583;50.946;6.954;2023-03-01T11:46:38;7.30;1.00
5130;DHT22;2583;50.946;6.954;2023-03-01T12:00:19;7.30;1.00
5130;DHT22;2583;50.946;6.954;2023-03-01T12:03:21;7.40;1.00
5130;DHT22;2583;50.946;6.954;2023-03-01T12:17:20;7.40;1.00
5130;DHT22;2583;50.946;6.954;2023-03-01T12:20:12;7.70;1.00
5130;DHT22;2583;50.946;6.954;2023-03-01T12:28:35;8.50;1.00
5130;DHT22;2583;50.946;6.954;2023-03-01T12:34:17;8.30;1.00
5130;DHT22;2583;50.946;6.954;2023-03-01T12:42:30;8.60;1.00
5130;DHT22;2583;50.946;6.954;2023-03-01T12:48:31;9.00;1.00
5130;DHT22;2583;50.946;6.954;2023-03-01T12:51:08;9.20;1.00
5130;DHT22;2583;50.946;6.954;2023-03-01T12:53:45;9.30;1.00
5130;DHT22;2583;50.946;6.954;2023-03-01T12:56:17;9.30;1.00
5130;DHT22;2583;50.946;6.954;2023-03-01T13:04:18;9.40;1.00
5130;DHT22;2583;50.946;6.954;2023-03-01T13:09:51;9.60;1.00
5130;DHT22;2583;50.946;6.954;2023-03-01T13:31:07;10.40;1.00
5130;DHT22;2583;50.946;6.954;2023-03-01T13:33:43;10.70;1.00
5130;DHT22;2583;50.946;6.954;2023-03-01T13:38:58;11.10;1.00
5130;DHT22;2583;50.946;6.954;2023-03-01T13:44:33;11.60;1.00
5130;DHT22;2583;50.946;6.954;2023-03-01T13:49:45;11.90;1.00
5130;DHT22;2583;50.946;6.954;2023-03-01T13:54:52;12.10;1.00
5130;DHT22;2583;50.946;6.954;2023-03-01T13:57:25;12.00;1.00
5130;DHT22;2583;50.946;6.954;2023-03-01T13:59:52;12.30;1.00
5130;DHT22;2583;50.946;6.954;2023-03-01T14:02:19;12.60;1.00
5130;DHT22;2583;50.946;6.954;2023-03-01T14:04:56;13.20;1.00
5130;DHT22;2583;50.946;6.954;2023-03-01T14:07:24;13.40;1.00
5130;DHT22;2583;50.946;6.954;2023-03-01T14:10:02;13.20;1.00
5130;DHT22;2583;50.946;6.954;2023-03-01T14:15:14;14.00;1.00
5130;DHT22;2583;50.946;6.954;2023-03-01T14:20:26;14.30;1.00
5130;DHT22;2583;50.946;6.954;2023-03-01T14:22:55;14.20;1.00
5130;DHT22;2583;50.946;6.954;2023-03-01T14:25:31;14.10;1.00
5130;DHT22;2583;50.946;6.954;2023-03-01T14:30:36;14.30;1.00
5130;DHT22;2583;50.946;6.954;2023-03-01T14:33:16;14.00;1.00
5130;DHT22;2583;50.946;6.954;2023-03-01T14:35:56;14.50;1.00
5130;DHT22;2583;50.946;6.954;2023-03-01T14:38:32;14.50;1.00
5130;DHT22;2583;50.946;6.954;2023-03-01T14:41:01;14.60;1.00
5130;DHT22;2583;50.946;6.954;2023-03-01T14:43:32;13.90;1.00
5130;DHT22;2583;50.946;6.954;2023-03-01T14:46:00;12.80;1.00
5130;DHT22;2583;50.946;6.954;2023-03-01T14:48:28;11.90;1.00
5130;DHT22;2583;50.946;6.954;2023-03-01T14:50:56;10.90;1.00
5130;DHT22;2583;50.946;6.954;2023-03-01T14:53:27;10.70;1.00
5130;DHT22;2583;50.946;6.954;2023-03-01T14:56:01;10.50;1.00
5130;DHT22;2583;50.946;6.954;2023-03-01T14:58:32;10.10;1.00
5130;DHT22;2583;50.946;6.954;2023-03-01T15:01:03;9.70;1.00
5130;DHT22;2583;50.946;6.954;2023-03-01T15:06:05;9.50;1.00
5130;DHT22;2583;50.946;6.954;2023-03-01T15:08:33;9.40;1.00
5130;DHT22;2583;50.946;6.954;2023-03-01T15:13:41;9.10;1.00
5130;DHT22;2583;50.946;6.954;2023-03-01T15:16:13;9.10;1.00
5130;DHT22;2583;50.946;6.954;2023-03-01T15:18:52;9.10;1.00
5130;DHT22;2583;50.946;6.954;2023-03-01T15:21:37;9.00;1.00
5130;DHT22;2583;50.946;6.954;2023-03-01T15:24:17;9.10;1.00
5130;DHT22;2583;50.946;6.954;2023-03-01T15:26:52;9.00;1.00
5130;DHT22;2583;50.946;6.954;2023-03-01T15:29:25;8.90;1.00
5130;DHT22;2583;50.946;6.954;2023-03-01T15:32:02;8.80;1.00
5130;DHT22;2583;50.946;6.954;2023-03-01T15:34:32;8.70;1.00
5130;DHT22;2583;50.946;6.954;2023-03-01T15:37:02;8.70;1.00
5130;DHT22;2583;50.946;6.954;2023-03-01T15:42:13;8.50;1.00
5130;DHT22;2583;50.946;6.954;2023-03-01T15:45:20;8.50;1.00
5130;DHT22;2583;50.946;6.954;2023-03-01T15:47:50;8.50;1.00
5130;DHT22;2583;50.946;6.954;2023-03-01T15:50:37;8.40;1.00
5130;DHT22;2583;50.946;6.954;2023-03-01T15:53:11;8.50;1.00
5130;DHT22;2583;50.946;6.954;2023-03-01T15:55:38;8.40;1.00
5130;DHT22;2583;50.946;6.954;2023-03-01T15:58:23;8.40;1.00
5130;DHT22;2583;50.946;6.954;2023-03-01T16:00:51;8.40;1.00
5130;DHT22;2583;50.946;6.954;2023-03-01T16:03:28;8.40;1.00
5130;DHT22;2583;50.946;6.954;2023-03-01T16:05:55;8.30;1.00
5130;DHT22;2583;50.946;6.954;2023-03-01T16:08:22;8.30;1.00
5130;DHT22;2583;50.946;6.954;2023-03-01T16:10:49;8.30;1.00
5130;DHT22;2583;50.946;6.954;2023-03-01T16:13:17;8.30;1.00
5130;DHT22;2583;50.946;6.954;2023-03-01T16:15:44;8.30;1.00
5130;DHT22;2583;50.946;6.954;2023-03-01T16:18:11;8.30;1.00
5130;DHT22;2583;50.946;6.954;2023-03-01T16:20:39;8.20;1.00
5130;DHT22;2583;50.946;6.954;2023-03-01T16:23:08;8.20;1.00
5130;DHT22;2583;50.946;6.954;2023-03-01T16:25:36;8.10;1.00
5130;DHT22;2583;50.946;6.954;2023-03-01T16:28:04;8.10;1.00
5130;DHT22;2583;50.946;6.954;2023-03-01T16:30:36;7.90;1.00
5130;DHT22;2583;50.946;6.954;2023-03-01T16:33:04;7.90;1.00
5130;DHT22;2583;50.946;6.954;2023-03-01T16:35:50;7.90;1.00
5130;DHT22;2583;50.946;6.954;2023-03-01T16:38:17;8.00;1.00
5130;DHT22;2583;50.946;6.954;2023-03-01T16:40:48;7.90;1.00
5130;DHT22;2583;50.946;6.954;2023-03-01T16:43:15;7.80;1.00
5130;DHT22;2583;50.946;6.954;2023-03-01T16:45:42;7.70;1.00
5130;DHT22;2583;50.946;6.954;2023-03-01T16:48:12;7.60;1.00
5130;DHT22;2583;50.946;6.954;2023-03-01T16:50:39;7.60;1.00
5130;DHT22;2583;50.946;6.954;2023-03-01T16:53:06;7.60;1.00
5130;DHT22;2583;50.946;6.954;2023-03-01T16:55:33;7.60;1.00
5130;DHT22;2583;50.946;6.954;2023-03-01T16:58:00;7.50;1.00
5130;DHT22;2583;50.946;6.954;2023-03-01T17:00:27;7.40;1.00
5130;DHT22;2583;50.946;6.954;2023-03-01T17:02:53;7.40;1.00
5130;DHT22;2583;50.946;6.954;2023-03-01T17:05:20;7.40;1.00
5130;DHT22;2583;50.946;6.954;2023-03-01T17:07:50;7.30;1.00
5130;DHT22;2583;50.946;6.954;2023-03-01T17:10:17;7.30;1.00
5130;DHT22;2583;50.946;6.954;2023-03-01T17:12:44;7.30;1.00
5130;DHT22;2583;50.946;6.954;2023-03-01T17:15:13;7.20;1.00
5130;DHT22;2583;50.946;6.954;2023-03-01T17:17:40;7.20;1.00
5130;DHT22;2583;50.946;6.954;2023-03-01T17:20:08;7.10;1.00
5130;DHT22;2583;50.946;6.954;2023-03-01T17:22:36;7.00;1.00
5130;DHT22;2583;50.946;6.954;2023-03-01T17:25:03;7.10;1.00
5130;DHT22;2583;50.946;6.954;2023-03-01T17:27:29;6.90;1.00
5130;DHT22;2583;50.946;6.954;2023-03-01T17:30:01;6.90;1.00
5130;DHT22;2583;50.946;6.954;2023-03-01T17:32:28;6.90;1.00
5130;DHT22;2583;50.946;6.954;2023-03-01T17:34:55;6.80;1.00
5130;DHT22;2583;50.946;6.954;2023-03-01T17:37:22;6.80;1.00
5130;DHT22;2583;50.946;6.954;2023-03-01T17:39:48;6.70;1.00
5130;DHT22;2583;50.946;6.954;2023-03-01T17:42:15;6.70;1.00
5130;DHT22;2583;50.946;6.954;2023-03-01T17:44:42;6.70;1.00
5130;DHT22;2583;50.946;6.954;2023-03-01T17:47:09;6.70;1.00
5130;DHT22;2583;50.946;6.954;2023-03-01T17:49:36;6.60;1.00
5130;DHT22;2583;50.946;6.954;2023-03-01T17:52:10;6.50;1.00
5130;DHT22;2583;50.946;6.954;2023-03-01T17:54:38;6.50;1.00
5130;DHT22;2583;50.946;6.954;2023-03-01T17:57:05;6.40;1.00
5130;DHT22;2583;50.946;6.954;2023-03-01T17:59:35;6.40;1.00
5130;DHT22;2583;50.946;6.954;2023-03-01T18:02:02;6.40;1.00
5130;DHT22;2583;50.946;6.954;2023-03-01T18:04:29;6.30;1.00
5130;DHT22;2583;50.946;6.954;2023-03-01T18:06:56;6.30;1.00
5130;DHT22;2583;50.946;6.954;2023-03-01T18:09:26;6.20;1.00
5130;DHT22;2583;50.946;6.954;2023-03-01T18:11:53;6.20;1.00
5130;DHT22;2583;50.946;6.954;2023-03-01T18:14:20;6.10;1.00
5130;DHT22;2583;50.946;6.954;2023-03-01T18:16:47;6.10;1.00
5130;DHT22;2583;50.946;6.954;2023-03-01T18:19:13;6.10;1.00
5130;DHT22;2583;50.946;6.954;2023-03-01T18:21:40;6.10;1.00
5130;DHT22;2583;50.946;6.954;2023-03-01T18:24:07;6.10;1.00
5130;DHT22;2583;50.946;6.954;2023-03-01T18:26:34;6.10;1.00
5130;DHT22;2583;50.946;6.954;2023-03-01T18:29:01;6.10;1.00
5130;DHT22;2583;50.946;6.954;2023-03-01T18:31:31;6.00;1.00
5130;DHT22;2583;50.946;6.954;2023-03-01T18:33:59;6.00;1.00
5130;DHT22;2583;50.946;6.954;2023-03-01T18:36:32;6.00;1.00
5130;DHT22;2583;50.946;6.954;2023-03-01T18:39:04;5.90;1.00
5130;DHT22;2583;50.946;6.954;2023-03-01T18:41:32;5.90;1.00
5130;DHT22;2583;50.946;6.954;2023-03-01T18:44:00;5.90;1.00
5130;DHT22;2583;50.946;6.954;2023-03-01T18:46:27;5.90;1.00
5130;DHT22;2583;50.946;6.954;2023-03-01T18:48:54;5.90;1.00
5130;DHT22;2583;50.946;6.954;2023-03-01T18:51:25;5.80;1.00
5130;DHT22;2583;50.946;6.954;2023-03-01T18:53:52;5.80;1.00
5130;DHT22;2583;50.946;6.954;2023-03-01T18:56:20;5.80;1.00
5130;DHT22;2583;50.946;6.954;2023-03-01T18:58:47;5.80;1.00
5130;DHT22;2583;50.946;6.954;2023-03-01T19:01:16;5.80;1.00
5130;DHT22;2583;50.946;6.954;2023-03-01T19:03:45;5.80;1.00
5130;DHT22;2583;50.946;6.954;2023-03-01T19:06:12;5.80;1.00
5130;DHT22;2583;50.946;6.954;2023-03-01T19:08:39;5.80;1.00
5130;DHT22;2583;50.946;6.954;2023-03-01T19:11:08;5.70;1.00